Time;durP1;ratioP1;P1;durP2;ratioP2;P2;SDS_P1;SDS_P2;PMS_P1;PMS_P2;Temp;Humidity;BMP_temperature;BMP_pressure;BME280_temperature;BME280_humidity;BME280_pressure;Samples;Min_cycle;Max_cycle;Signal;HPM_P1;HPM_P2
2023/08/10 00:00:16;;;;;;;1.27;0.50;;;15.30;88.30;;;;;;4892802;29;20141;-81
2023/08/10 00:02:44;;;;;;;3.42;0.50;;;15.40;88.40;;;;;;4881699;29;20075;-81
2023/08/10 00:05:11;;;;;;;1.90;0.40;;;15.40;88.50;;;;;;4880847;29;20048;-81
2023/08/10 00:07:38;;;;;;;0.90;0.30;;;15.40;88.40;;;;;;4895678;29;20056;-81
2023/08/10 00:10:08;;;;;;;1.42;0.45;;;15.40;88.40;;;;;;4897939;29;20045;-82
2023/08/10 00:12:37;;;;;;;1.17;0.30;;;15.40;88.50;;;;;;4881052;29;20864;-81
2023/08/10 00:15:07;;;;;;;1.30;0.40;;;15.50;88.60;;;;;;4880252;29;20045;-81
2023/08/10 00:17:36;;;;;;;1.55;0.52;;;15.50;88.60;;;;;;4873182;29;20056;-81
2023/08/10 00:20:07;;;;;;;1.65;0.50;;;15.50;88.70;;;;;;4865740;29;20055;-93
2023/08/10 00:22:37;;;;;;;1.75;0.60;;;15.50;88.70;;;;;;4866775;29;20049;-93
2023/08/10 00:25:07;;;;;;;2.30;0.50;;;15.50;88.80;;;;;;4896945;29;20052;-93
2023/08/10 00:27:40;;;;;;;1.90;0.30;;;15.50;88.80;;;;;;4861086;29;20048;-93
2023/08/10 00:30:08;;;;;;;1.35;0.30;;;15.50;88.80;;;;;;4885186;29;20409;-93
2023/08/10 00:32:36;;;;;;;1.20;0.35;;;15.50;88.90;;;;;;4881039;29;20077;-93
2023/08/10 00:35:04;;;;;;;2.40;0.50;;;15.60;89.00;;;;;;4880877;29;20147;-94
2023/08/10 00:37:31;;;;;;;3.03;0.40;;;15.60;89.00;;;;;;4880838;29;20041;-93
2023/08/10 00:39:59;;;;;;;2.22;0.32;;;15.60;89.00;;;;;;4866416;29;20060;-93
2023/08/10 00:42:27;;;;;;;0.60;0.30;;;15.60;89.20;;;;;;4881599;29;20056;-93
2023/08/10 00:44:54;;;;;;;1.45;0.60;;;15.60;89.10;;;;;;4881869;29;20076;-92
2023/08/10 00:47:23;;;;;;;1.40;0.47;;;15.60;89.10;;;;;;4862318;29;20052;-92
2023/08/10 00:49:51;;;;;;;2.28;0.50;;;15.60;89.20;;;;;;4896315;29;20132;-93
2023/08/10 00:52:18;;;;;;;0.85;0.32;;;15.60;89.30;;;;;;4880903;29;20061;-92
2023/08/10 00:54:47;;;;;;;2.03;0.50;;;15.60;89.40;;;;;;4900740;29;20414;-92
2023/08/10 00:57:14;;;;;;;1.02;0.40;;;15.60;89.40;;;;;;4865676;29;20075;-91
2023/08/10 00:59:42;;;;;;;3.13;0.30;;;15.60;89.40;;;;;;4896992;29;20045;-92
2023/08/10 01:02:11;;;;;;;2.10;0.40;;;15.60;89.50;;;;;;4898199;29;20084;-92
2023/08/10 01:04:42;;;;;;;1.08;0.50;;;15.60;89.50;;;;;;4850428;29;20056;-92
2023/08/10 01:07:27;;;;;;;1.13;0.32;;;15.50;89.50;;;;;;4896532;29;20053;-92
2023/08/10 01:10:00;;;;;;;1.17;0.40;;;15.60;89.60;;;;;;4882869;29;20056;-92
2023/08/10 01:12:40;;;;;;;1.02;0.40;;;15.60;89.80;;;;;;4890401;29;20063;-90
2023/08/10 01:15:16;;;;;;;0.73;0.22;;;15.50;89.70;;;;;;4882420;29;20048;-93
2023/08/10 01:17:50;;;;;;;0.90;0.40;;;15.50;89.80;;;;;;4879615;29;20085;-93
2023/08/10 01:20:21;;;;;;;1.73;0.30;;;15.50;89.90;;;;;;4881504;29;20059;-90
2023/08/10 01:23:24;;;;;;;0.73;0.30;;;15.50;89.90;;;;;;4896068;29;20053;-92
2023/08/10 01:25:52;;;;;;;2.25;0.30;;;15.50;89.90;;;;;;4881745;29;20048;-91
2023/08/10 01:28:19;;;;;;;0.77;0.30;;;15.50;90.00;;;;;;4902904;29;20059;-92
2023/08/10 01:30:47;;;;;;;3.17;0.40;;;15.50;90.00;;;;;;4868835;29;20053;-93
2023/08/10 01:33:15;;;;;;;1.17;0.40;;;15.50;90.00;;;;;;4881291;29;20056;-93
2023/08/10 01:39:20;;;;;;;0.73;0.30;;;15.60;90.10;;;;;;4881176;29;20066;-92
2023/08/10 01:41:47;;;;;;;1.92;0.40;;;15.50;90.10;;;;;;4882377;29;20052;-92
2023/08/10 01:44:55;;;;;;;0.95;0.35;;;15.50;90.10;;;;;;4862429;29;20060;-92
2023/08/10 01:47:36;;;;;;;1.05;0.30;;;15.50;90.20;;;;;;4881512;29;20060;-92
2023/08/10 01:50:24;;;;;;;2.40;0.50;;;15.50;90.30;;;;;;4886678;29;20041;-93
2023/08/10 01:52:56;;;;;;;2.10;0.45;;;15.50;90.30;;;;;;4864885;29;20892;-92
2023/08/10 01:55:24;;;;;;;1.50;0.50;;;15.50;90.40;;;;;;4877845;29;20048;-93
2023/08/10 01:57:51;;;;;;;1.27;0.40;;;15.40;90.40;;;;;;4865769;29;20063;-93
2023/08/10 02:03:42;;;;;;;1.75;0.40;;;15.40;90.50;;;;;;4891039;29;20143;-92
2023/08/10 02:06:49;;;;;;;1.20;0.30;;;15.20;90.70;;;;;;4881728;29;20049;-92
2023/08/10 02:09:16;;;;;;;2.45;0.47;;;15.20;90.70;;;;;;4896962;29;20135;-93
2023/08/10 02:11:44;;;;;;;0.85;0.40;;;15.20;90.80;;;;;;4880775;29;20068;-93
2023/08/10 02:14:15;;;;;;;0.60;0.30;;;15.10;90.80;;;;;;4878586;29;20522;-92
2023/08/10 02:17:21;;;;;;;1.55;0.45;;;15.20;90.90;;;;;;4861125;29;20080;-93
2023/08/10 02:19:48;;;;;;;2.25;0.30;;;15.20;90.90;;;;;;4880962;29;20108;-93
2023/08/10 02:22:18;;;;;;;1.88;0.50;;;15.20;90.90;;;;;;4883883;29;20144;-93
2023/08/10 02:24:48;;;;;;;1.00;0.32;;;15.10;91.00;;;;;;4850635;29;20080;-93
2023/08/10 02:27:15;;;;;;;2.15;0.30;;;15.20;91.10;;;;;;4883923;29;20070;-93
2023/08/10 02:29:42;;;;;;;2.03;0.40;;;15.10;91.10;;;;;;4877183;29;20063;-93
2023/08/10 02:32:09;;;;;;;1.45;0.40;;;15.20;91.10;;;;;;4865417;29;20143;-93
2023/08/10 02:34:36;;;;;;;0.43;0.20;;;15.10;91.10;;;;;;4851230;29;20055;-92
2023/08/10 02:37:03;;;;;;;1.63;0.47;;;15.10;91.20;;;;;;4881444;29;20052;-92
2023/08/10 02:39:31;;;;;;;2.38;0.55;;;15.10;91.20;;;;;;4849410;29;20079;-93
2023/08/10 02:41:58;;;;;;;1.00;0.40;;;15.00;91.30;;;;;;4865316;29;20071;-92
2023/08/10 02:44:25;;;;;;;1.35;0.35;;;15.00;91.30;;;;;;4880105;29;20068;-92
2023/08/10 02:46:52;;;;;;;0.93;0.35;;;15.00;91.40;;;;;;4851007;29;20057;-92
2023/08/10 02:49:19;;;;;;;1.10;0.30;;;14.90;91.50;;;;;;4910583;29;20084;-92
2023/08/10 02:51:46;;;;;;;2.05;0.20;;;14.90;91.50;;;;;;4880914;29;20052;-92
2023/08/10 02:54:14;;;;;;;4.15;0.40;;;14.90;91.60;;;;;;4846310;29;20056;-91
2023/08/10 02:56:41;;;;;;;1.83;0.40;;;14.90;91.60;;;;;;4855218;29;20045;-93
2023/08/10 02:59:09;;;;;;;1.55;0.40;;;14.80;91.60;;;;;;4883010;29;20048;-93
2023/08/10 03:01:36;;;;;;;2.20;0.50;;;14.90;91.60;;;;;;4905244;29;20041;-92
2023/08/10 03:04:05;;;;;;;1.30;0.40;;;14.90;91.60;;;;;;4855158;29;20052;-92
2023/08/10 03:06:33;;;;;;;2.53;0.30;;;14.90;91.60;;;;;;4858071;29;20186;-91
2023/08/10 03:09:00;;;;;;;1.02;0.20;;;14.90;91.60;;;;;;4885522;29;20076;-92
2023/08/10 03:11:28;;;;;;;0.68;0.22;;;14.90;91.60;;;;;;4856044;29;20056;-93
2023/08/10 03:13:55;;;;;;;0.70;0.40;;;14.90;91.60;;;;;;4880129;29;20052;-93
2023/08/10 03:16:23;;;;;;;0.93;0.40;;;14.90;91.60;;;;;;4865453;29;20049;-92
2023/08/10 03:18:53;;;;;;;0.65;0.20;;;15.00;91.60;;;;;;4879494;29;20505;-93
2023/08/10 03:21:21;;;;;;;0.82;0.30;;;15.00;91.60;;;;;;4896083;29;20097;-93
2023/08/10 03:23:48;;;;;;;0.68;0.22;;;15.00;91.70;;;;;;4895234;29;20068;-93
2023/08/10 03:26:19;;;;;;;0.77;0.30;;;15.00;91.70;;;;;;4859980;29;20104;-92
2023/08/10 03:28:49;;;;;;;1.02;0.30;;;15.00;91.70;;;;;;4876626;29;20087;-93
2023/08/10 03:31:17;;;;;;;0.90;0.30;;;15.10;91.70;;;;;;4881963;29;20053;-92
2023/08/10 03:33:44;;;;;;;0.57;0.28;;;15.10;91.70;;;;;;4885574;29;20080;-92
2023/08/10 03:36:12;;;;;;;0.47;0.25;;;15.10;91.70;;;;;;4862967;29;20049;-92
2023/08/10 03:38:39;;;;;;;2.92;0.30;;;15.10;91.80;;;;;;4905294;29;20082;-92
2023/08/10 03:41:06;;;;;;;1.73;0.40;;;15.10;91.80;;;;;;4862986;29;20057;-92
2023/08/10 03:43:33;;;;;;;1.45;0.30;;;15.10;91.80;;;;;;4867616;29;20048;-90
2023/08/10 03:46:03;;;;;;;0.68;0.40;;;15.10;91.80;;;;;;4899737;29;20060;-82
2023/08/10 03:48:30;;;;;;;1.13;0.40;;;15.10;91.90;;;;;;4882454;29;20597;-82
2023/08/10 03:50:57;;;;;;;1.52;0.30;;;15.00;91.80;;;;;;4865275;29;20088;-82
2023/08/10 03:53:24;;;;;;;1.90;0.30;;;15.10;91.80;;;;;;4881780;29;20052;-82
2023/08/10 03:55:51;;;;;;;0.60;0.20;;;15.10;91.80;;;;;;4893447;29;20557;-81
2023/08/10 03:58:21;;;;;;;1.75;0.30;;;15.10;91.80;;;;;;4882034;29;20450;-81
2023/08/10 04:00:48;;;;;;;2.95;0.20;;;15.10;91.80;;;;;;4882998;29;20045;-82
2023/08/10 04:03:15;;;;;;;0.98;0.30;;;15.10;91.80;;;;;;4851857;29;20053;-92
2023/08/10 04:05:43;;;;;;;1.45;0.40;;;15.10;92.00;;;;;;4884069;29;20768;-92
2023/08/10 04:08:10;;;;;;;1.42;0.40;;;15.10;91.80;;;;;;4846881;29;20147;-92
2023/08/10 04:10:37;;;;;;;1.08;0.30;;;15.20;91.90;;;;;;4868061;29;20611;-92
2023/08/10 04:13:05;;;;;;;1.13;0.30;;;15.20;91.90;;;;;;4882631;29;20056;-92
2023/08/10 04:15:33;;;;;;;1.02;0.30;;;15.20;91.90;;;;;;4866015;29;20045;-92
2023/08/10 04:18:01;;;;;;;2.13;0.40;;;15.20;91.90;;;;;;4864823;29;20052;-91
2023/08/10 04:20:35;;;;;;;1.60;0.45;;;15.20;91.90;;;;;;4870239;29;20063;-91
2023/08/10 04:23:02;;;;;;;1.40;0.40;;;15.20;91.90;;;;;;4866579;29;20064;-92
2023/08/10 04:25:29;;;;;;;1.00;0.28;;;15.20;91.90;;;;;;4875070;29;20162;-92
2023/08/10 04:27:56;;;;;;;0.80;0.28;;;15.20;92.00;;;;;;4899154;29;20056;-92
2023/08/10 04:30:28;;;;;;;1.13;0.40;;;15.20;92.00;;;;;;4874256;29;20143;-93
2023/08/10 04:32:57;;;;;;;0.60;0.30;;;15.20;92.10;;;;;;4767286;29;20381;-92
2023/08/10 04:35:31;;;;;;;0.90;0.40;;;15.20;92.10;;;;;;4880441;29;20040;-92
2023/08/10 04:37:58;;;;;;;1.20;0.40;;;15.20;92.10;;;;;;4868545;29;20060;-92
2023/08/10 04:40:25;;;;;;;0.73;0.30;;;15.20;92.10;;;;;;4879831;29;20060;-92
2023/08/10 04:42:52;;;;;;;1.75;0.50;;;15.20;92.10;;;;;;4898010;29;20151;-92
2023/08/10 04:45:21;;;;;;;0.60;0.30;;;15.20;92.10;;;;;;4866281;29;20049;-92
2023/08/10 04:47:48;;;;;;;1.45;0.60;;;15.30;92.10;;;;;;4881444;29;20051;-92
2023/08/10 04:50:15;;;;;;;2.00;0.47;;;15.30;92.10;;;;;;4845354;29;20494;-92
2023/08/10 04:52:43;;;;;;;1.27;0.40;;;15.30;92.10;;;;;;4878476;29;20052;-92
2023/08/10 04:55:13;;;;;;;2.13;0.65;;;15.30;92.10;;;;;;4866121;29;20793;-92
2023/08/10 04:57:40;;;;;;;2.40;0.50;;;15.40;92.10;;;;;;4865012;29;20135;-93
2023/08/10 05:00:13;;;;;;;3.95;1.08;;;15.40;92.00;;;;;;4865851;29;20128;-92
2023/08/10 05:02:59;;;;;;;1.88;0.70;;;15.50;91.90;;;;;;4894258;29;20086;-92
2023/08/10 05:05:27;;;;;;;2.80;0.65;;;15.50;91.80;;;;;;4875299;29;20123;-93
2023/08/10 05:08:39;;;;;;;2.72;0.73;;;15.50;91.80;;;;;;4885055;29;20068;-93
2023/08/10 05:11:06;;;;;;;2.70;0.60;;;15.60;91.70;;;;;;4875858;29;20052;-94
2023/08/10 05:13:33;;;;;;;2.35;0.60;;;15.60;91.70;;;;;;4883133;29;20048;-93
2023/08/10 05:16:42;;;;;;;2.30;0.88;;;15.70;91.60;;;;;;4890040;29;20049;-92
2023/08/10 05:19:13;;;;;;;3.08;1.38;;;15.70;91.50;;;;;;4893247;29;20044;-93
2023/08/10 05:21:40;;;;;;;1.42;0.70;;;15.70;91.50;;;;;;4854079;29;20059;-92
2023/08/10 05:24:07;;;;;;;2.75;0.80;;;15.70;91.50;;;;;;4880614;29;20063;-92
2023/08/10 05:26:34;;;;;;;1.80;0.60;;;15.80;91.50;;;;;;4897678;29;20058;-92
2023/08/10 05:29:01;;;;;;;1.75;0.60;;;15.80;91.50;;;;;;4865844;29;20044;-92
2023/08/10 05:31:28;;;;;;;3.20;0.80;;;15.80;91.50;;;;;;4896710;29;20409;-92
2023/08/10 05:33:56;;;;;;;1.85;0.70;;;15.80;91.50;;;;;;4863348;29;20056;-92
2023/08/10 05:36:23;;;;;;;2.92;1.40;;;15.80;91.40;;;;;;4884350;29;20401;-92
2023/08/10 05:38:50;;;;;;;2.15;0.73;;;15.80;91.40;;;;;;4867019;29;20203;-91
2023/08/10 05:41:23;;;;;;;1.65;0.77;;;15.80;91.40;;;;;;4880689;29;20144;-92
2023/08/10 05:43:50;;;;;;;1.80;0.98;;;15.80;91.40;;;;;;4851840;29;20111;-92
2023/08/10 05:46:17;;;;;;;2.17;0.82;;;15.80;91.40;;;;;;4877587;29;20457;-92
2023/08/10 05:48:44;;;;;;;2.35;0.80;;;15.90;91.30;;;;;;4884364;29;20129;-92
2023/08/10 05:51:13;;;;;;;2.35;0.70;;;16.00;91.20;;;;;;4886389;29;20516;-92
2023/08/10 05:53:43;;;;;;;1.88;0.68;;;16.10;91.10;;;;;;4858607;29;20496;-82
2023/08/10 05:56:14;;;;;;;1.27;0.50;;;16.10;91.00;;;;;;4883823;29;20048;-80
2023/08/10 05:58:43;;;;;;;1.10;0.50;;;16.20;91.00;;;;;;4848944;29;20386;-81
2023/08/10 06:01:11;;;;;;;1.45;0.50;;;16.20;90.90;;;;;;4901108;29;20051;-82
2023/08/10 06:03:38;;;;;;;0.55;0.38;;;16.30;90.90;;;;;;4880101;29;20549;-81
2023/08/10 06:06:09;;;;;;;3.47;0.50;;;16.30;90.80;;;;;;4871218;29;20409;-81
2023/08/10 06:08:36;;;;;;;3.38;0.65;;;16.40;90.80;;;;;;4888584;29;20074;-81
2023/08/10 06:11:06;;;;;;;1.63;0.50;;;16.40;90.80;;;;;;4893061;29;20056;-81
2023/08/10 06:13:34;;;;;;;2.03;0.60;;;16.40;91.00;;;;;;4864977;29;20401;-81
2023/08/10 06:16:03;;;;;;;1.35;0.60;;;16.50;90.70;;;;;;4881245;29;20536;-81
2023/08/10 06:18:34;;;;;;;2.35;0.70;;;16.50;90.70;;;;;;4878499;29;20041;-82
2023/08/10 06:21:03;;;;;;;2.08;0.47;;;16.60;90.60;;;;;;4894852;29;20048;-82
2023/08/10 06:23:32;;;;;;;1.60;0.60;;;16.70;90.50;;;;;;4894166;29;20063;-81
2023/08/10 06:26:00;;;;;;;3.25;1.02;;;16.70;90.40;;;;;;4885591;29;20061;-81
2023/08/10 06:28:27;;;;;;;2.30;0.95;;;16.80;90.30;;;;;;4879738;29;20060;-82
2023/08/10 06:30:55;;;;;;;2.55;0.63;;;16.90;90.20;;;;;;4863668;29;20457;-81
2023/08/10 06:33:22;;;;;;;2.60;0.70;;;17.00;90.00;;;;;;4864460;29;20516;-82
2023/08/10 06:35:52;;;;;;;1.95;0.80;;;17.10;90.00;;;;;;4850290;29;20076;-92
2023/08/10 06:38:20;;;;;;;2.75;0.60;;;17.10;89.80;;;;;;4856755;29;20100;-91
2023/08/10 06:40:48;;;;;;;2.03;0.73;;;17.20;89.70;;;;;;4884790;29;20099;-92
2023/08/10 06:43:15;;;;;;;1.48;0.43;;;17.30;89.60;;;;;;4880209;29;20056;-92
2023/08/10 06:45:49;;;;;;;3.35;0.70;;;17.40;89.50;;;;;;4866259;29;20053;-91
2023/08/10 06:48:16;;;;;;;2.47;0.90;;;17.40;89.20;;;;;;4876741;29;20052;-92
2023/08/10 06:50:44;;;;;;;1.90;0.60;;;17.50;89.10;;;;;;4865473;29;20053;-92
2023/08/10 06:53:16;;;;;;;2.22;0.65;;;17.60;89.00;;;;;;4872724;29;20052;-91
2023/08/10 06:55:44;;;;;;;;;;;17.60;88.80;;;;;;4863600;29;20094;-91
2023/08/10 06:58:12;;;;;;;2.00;0.60;;;17.70;88.80;;;;;;4880609;29;20052;-91
2023/08/10 07:01:00;;;;;;;2.10;0.70;;;17.70;88.80;;;;;;4868972;29;20052;-92
2023/08/10 07:03:28;;;;;;;3.83;0.85;;;17.80;88.40;;;;;;4870472;29;20056;-92
2023/08/10 07:06:38;;;;;;;3.80;1.00;;;17.90;88.10;;;;;;4855008;29;20091;-91
2023/08/10 07:09:09;;;;;;;2.58;1.08;;;17.90;87.50;;;;;;4877650;29;20102;-92
2023/08/10 07:11:39;;;;;;;4.45;1.05;;;17.90;87.40;;;;;;4849645;29;20124;-93
2023/08/10 07:14:06;;;;;;;4.50;0.85;;;18.00;87.30;;;;;;4851636;29;20666;-92
2023/08/10 07:16:33;;;;;;;3.50;0.80;;;18.10;87.10;;;;;;4866112;29;20670;-92
2023/08/10 07:19:00;;;;;;;1.25;0.60;;;18.20;87.10;;;;;;4851311;29;20037;-93
2023/08/10 07:21:27;;;;;;;2.60;0.60;;;18.30;87.00;;;;;;4862476;29;20077;-92
2023/08/10 07:23:54;;;;;;;1.08;0.30;;;18.40;86.80;;;;;;4882046;29;20044;-93
2023/08/10 07:27:03;;;;;;;1.10;0.50;;;18.50;86.60;;;;;;4869216;29;20064;-92
2023/08/10 07:29:39;;;;;;;3.45;0.80;;;18.60;86.30;;;;;;4874113;29;20409;-93
2023/08/10 07:32:07;;;;;;;1.45;0.70;;;18.60;85.40;;;;;;4901634;29;20052;-90
2023/08/10 07:34:34;;;;;;;1.38;0.60;;;18.60;84.60;;;;;;4881908;29;20053;-90
2023/08/10 07:37:01;;;;;;;1.67;0.70;;;18.70;84.60;;;;;;4856897;29;20047;-91
2023/08/10 07:40:11;;;;;;;2.40;0.52;;;18.80;84.60;;;;;;4902831;29;20104;-91
2023/08/10 07:42:40;;;;;;;0.80;0.30;;;18.90;84.00;;;;;;4871221;29;20045;-90
2023/08/10 07:45:26;;;;;;;2.28;0.68;;;18.90;83.70;;;;;;4897942;29;20049;-91
2023/08/10 07:47:53;;;;;;;1.88;0.63;;;19.00;83.10;;;;;;4897090;29;20132;-91
2023/08/10 07:50:21;;;;;;;1.63;0.38;;;19.10;83.10;;;;;;4868639;29;20513;-91
2023/08/10 07:52:48;;;;;;;1.65;0.47;;;19.20;82.90;;;;;;4874383;29;21089;-91
2023/08/10 07:55:15;;;;;;;1.67;0.43;;;19.30;82.40;;;;;;4888479;29;20231;-91
2023/08/10 07:57:50;;;;;;;1.35;0.50;;;19.40;81.90;;;;;;4863810;29;20045;-90
2023/08/10 08:00:17;;;;;;;1.50;0.45;;;19.40;80.90;;;;;;4888413;29;20048;-89
2023/08/10 08:02:44;;;;;;;1.25;0.40;;;19.40;80.80;;;;;;4897919;29;20410;-88
2023/08/10 08:05:12;;;;;;;1.20;0.30;;;19.50;80.50;;;;;;4868874;29;20080;-89
2023/08/10 08:07:43;;;;;;;1.73;0.40;;;19.50;80.30;;;;;;4886639;29;20055;-89
2023/08/10 08:10:10;;;;;;;1.05;0.40;;;19.60;80.00;;;;;;4886064;29;20108;-91
2023/08/10 08:12:42;;;;;;;0.95;0.40;;;19.70;79.60;;;;;;4858520;29;20056;-90
2023/08/10 08:15:10;;;;;;;1.45;0.40;;;19.70;79.30;;;;;;4869804;29;20442;-88
2023/08/10 08:18:14;;;;;;;1.10;0.38;;;19.80;78.70;;;;;;4890754;29;20059;-91
2023/08/10 08:20:44;;;;;;;1.08;0.30;;;19.90;78.50;;;;;;4876448;29;20044;-91
2023/08/10 08:23:11;;;;;;;0.90;0.35;;;20.00;78.50;;;;;;4882231;29;20049;-90
2023/08/10 08:25:38;;;;;;;1.33;0.30;;;20.10;78.30;;;;;;4863961;29;20123;-91
2023/08/10 08:28:26;;;;;;;1.00;0.40;;;20.20;77.90;;;;;;4895166;29;20048;-91
2023/08/10 08:31:04;;;;;;;1.38;0.30;;;20.30;77.50;;;;;;4888858;29;20049;-92
2023/08/10 08:33:31;;;;;;;1.05;0.30;;;20.40;76.90;;;;;;4882896;29;20470;-89
2023/08/10 08:35:59;;;;;;;1.05;0.40;;;20.40;75.90;;;;;;4899081;29;20053;-89
2023/08/10 08:38:27;;;;;;;0.65;0.30;;;20.50;76.00;;;;;;4744150;29;20345;-90
2023/08/10 08:40:55;;;;;;;0.52;0.20;;;20.50;75.50;;;;;;4881576;29;20055;-89
2023/08/10 08:43:23;;;;;;;1.20;0.32;;;20.60;74.90;;;;;;4867872;29;20049;-93
2023/08/10 08:45:50;;;;;;;1.17;0.40;;;20.60;74.30;;;;;;4892011;29;20060;-93
2023/08/10 08:48:37;;;;;;;1.23;0.40;;;20.70;74.30;;;;;;4906790;29;20052;-88
2023/08/10 08:55:25;;;;;;;1.60;0.47;;;21.00;73.80;;;;;;4892699;29;20078;-90
2023/08/10 08:57:53;;;;;;;1.02;0.32;;;21.00;72.80;;;;;;4894756;29;20055;-83
2023/08/10 09:00:20;;;;;;;0.88;0.50;;;21.10;72.60;;;;;;4878951;29;20052;-82
2023/08/10 09:02:48;;;;;;;0.93;0.40;;;21.30;72.30;;;;;;4896732;29;20100;-82
2023/08/10 09:05:17;;;;;;;1.58;0.32;;;21.50;72.20;;;;;;4906626;29;20048;-81
2023/08/10 09:07:44;;;;;;;1.35;0.40;;;21.80;71.30;;;;;;4895940;29;20417;-81
2023/08/10 09:15:38;;;;;;;1.10;0.40;;;22.20;70.60;;;;;;4903376;29;20081;-91
2023/08/10 09:18:29;;;;;;;0.60;0.20;;;22.10;70.90;;;;;;4887846;29;20557;-89
2023/08/10 09:21:18;;;;;;;1.15;0.30;;;22.20;71.00;;;;;;4866912;29;20405;-89
2023/08/10 09:23:48;;;;;;;2.03;0.38;;;22.20;69.90;;;;;;4875087;29;20131;-88
2023/08/10 09:26:17;;;;;;;0.52;0.20;;;22.30;69.60;;;;;;4872471;29;20050;-93
2023/08/10 09:28:49;;;;;;;1.45;0.30;;;22.40;69.20;;;;;;4865440;29;20094;-90
2023/08/10 09:31:27;;;;;;;0.70;0.28;;;22.40;68.10;;;;;;4873471;29;20055;-90
2023/08/10 09:33:57;;;;;;;0.77;0.30;;;22.30;68.00;;;;;;4865639;29;20049;-92
2023/08/10 09:36:26;;;;;;;1.95;0.40;;;22.20;67.80;;;;;;4894435;29;20056;-81
2023/08/10 09:38:54;;;;;;;1.08;0.43;;;22.20;67.90;;;;;;4875905;29;20516;-82
2023/08/10 09:41:23;;;;;;;0.85;0.22;;;22.30;67.50;;;;;;4865128;29;20143;-80
2023/08/10 09:43:51;;;;;;;1.23;0.60;;;22.40;66.80;;;;;;4879397;29;20096;-92
2023/08/10 09:46:20;;;;;;;1.30;0.28;;;22.60;66.80;;;;;;4896179;29;20507;-92
2023/08/10 09:48:52;;;;;;;1.35;0.30;;;22.60;66.30;;;;;;4881887;29;20055;-88
2023/08/10 09:51:19;;;;;;;1.90;0.60;;;22.40;65.90;;;;;;4901990;29;20048;-88
2023/08/10 09:53:47;;;;;;;1.35;0.45;;;22.30;66.40;;;;;;4891673;29;20052;-87
2023/08/10 09:56:26;;;;;;;0.80;0.32;;;22.10;67.10;;;;;;4868897;29;20189;-93
2023/08/10 09:58:54;;;;;;;1.65;0.30;;;22.10;67.00;;;;;;4867828;29;20072;-91
2023/08/10 10:01:21;;;;;;;1.38;0.30;;;22.10;67.00;;;;;;4882339;29;20048;-88
2023/08/10 10:03:48;;;;;;;1.05;0.50;;;22.10;66.90;;;;;;4889033;29;20041;-92
2023/08/10 10:06:16;;;;;;;1.15;0.40;;;22.20;66.50;;;;;;4889673;29;20045;-93
2023/08/10 10:08:53;;;;;;;1.70;1.05;;;22.20;65.70;;;;;;4875237;29;20056;-89
2023/08/10 10:11:21;;;;;;;4.60;0.73;;;22.20;65.00;;;;;;4865060;29;20055;-93
2023/08/10 10:13:49;;;;;;;2.08;0.40;;;22.30;64.90;;;;;;4888002;29;20138;-94
2023/08/10 10:16:19;;;;;;;1.42;0.40;;;22.40;64.70;;;;;;4873664;29;20080;-93
2023/08/10 10:18:47;;;;;;;1.93;0.60;;;22.40;65.30;;;;;;4890592;29;20044;-87
2023/08/10 10:21:15;;;;;;;1.45;0.40;;;22.40;65.10;;;;;;4843198;29;20307;-92
2023/08/10 10:23:42;;;;;;;1.08;0.55;;;22.40;65.30;;;;;;4899742;29;20063;-86
2023/08/10 10:26:12;;;;;;;1.50;0.50;;;22.50;65.30;;;;;;4857373;29;20044;-92
2023/08/10 10:28:41;;;;;;;1.65;0.68;;;22.50;65.10;;;;;;4895687;29;20045;-94
2023/08/10 10:31:17;;;;;;;0.95;0.50;;;22.40;65.60;;;;;;4876657;29;20626;-94
2023/08/10 10:33:55;;;;;;;2.05;0.60;;;22.30;66.10;;;;;;4904302;29;20044;-94
2023/08/10 10:36:25;;;;;;;1.13;0.45;;;22.40;66.20;;;;;;4888642;29;20060;-88
2023/08/10 10:39:07;;;;;;;2.35;1.25;;;22.30;66.00;;;;;;4900679;29;20093;-86
2023/08/10 10:41:35;;;;;;;2.50;0.70;;;22.10;64.80;;;;;;4894390;29;20048;-87
2023/08/10 10:44:04;;;;;;;2.80;0.50;;;22.00;65.40;;;;;;4883038;29;20068;-94
2023/08/10 10:46:50;;;;;;;1.98;0.50;;;22.00;65.80;;;;;;4895234;29;20053;-93
2023/08/10 10:49:21;;;;;;;1.27;0.45;;;22.00;66.10;;;;;;4904681;29;20052;-88
2023/08/10 10:51:58;;;;;;;1.52;0.47;;;21.80;66.50;;;;;;4861886;29;20108;-90
2023/08/10 10:54:27;;;;;;;1.55;0.60;;;21.80;66.70;;;;;;4895157;29;20123;-89
2023/08/10 10:56:57;;;;;;;1.25;0.50;;;22.00;66.50;;;;;;4863606;29;20120;-93
2023/08/10 10:59:57;;;;;;;1.40;0.43;;;22.50;65.80;;;;;;4893129;29;20052;-89
2023/08/10 11:02:57;;;;;;;;;;;;;;;;;;;;;
2023/08/10 11:05:33;;;;;;;1.95;0.47;;;23.30;63.50;;;;;;4889807;29;20052;-87
2023/08/10 11:08:06;;;;;;;0.80;0.30;;;23.70;63.00;;;;;;4873474;29;20473;-96
2023/08/10 11:10:44;;;;;;;1.92;0.80;;;24.00;62.50;;;;;;4898634;29;20053;-86
2023/08/10 11:13:44;;;;;;;1.20;0.40;;;24.20;61.10;;;;;;4866880;29;20104;-90
2023/08/10 11:16:11;;;;;;;1.23;0.50;;;24.30;61.20;;;;;;4877108;29;20052;-82
2023/08/10 11:18:46;;;;;;;1.65;0.52;;;24.40;61.10;;;;;;4867313;29;20047;-91
2023/08/10 11:21:15;;;;;;;1.25;0.50;;;24.50;60.50;;;;;;4897324;29;20056;-86
2023/08/10 11:23:43;;;;;;;1.52;0.30;;;24.70;60.20;;;;;;4849230;29;20044;-89
2023/08/10 11:26:11;;;;;;;0.88;0.50;;;25.00;60.20;;;;;;4863399;29;20060;-90
2023/08/10 11:28:39;;;;;;;1.15;0.55;;;25.40;59.90;;;;;;4893416;29;20449;-88
2023/08/10 11:31:14;;;;;;;2.15;0.32;;;25.40;59.20;;;;;;4879703;29;20049;-90
2023/08/10 11:33:51;;;;;;;1.48;0.68;;;25.70;59.40;;;;;;4860683;29;20056;-89
2023/08/10 11:37:07;;;;;;;0.82;0.45;;;25.80;58.20;;;;;;4877364;29;20072;-91
2023/08/10 11:40:09;;;;;;;2.58;0.75;;;25.90;58.50;;;;;;4884568;29;20427;-90
2023/08/10 11:42:39;;;;;;;;;;;26.20;58.40;;;;;;4814152;29;20131;-85
2023/08/10 11:45:16;;;;;;;1.42;0.60;;;26.40;58.30;;;;;;4707305;29;19924;-85
2023/08/10 11:48:09;;;;;;;1.00;0.50;;;26.50;57.40;;;;;;4875746;29;20044;-84
2023/08/10 11:50:38;;;;;;;3.28;0.80;;;26.50;56.70;;;;;;4865815;29;20136;-82
2023/08/10 11:53:19;;;;;;;1.30;0.50;;;26.50;56.90;;;;;;4755426;29;20443;-83
2023/08/10 11:55:48;;;;;;;1.33;0.50;;;26.70;56.80;;;;;;4891810;29;20049;-83
2023/08/10 11:58:17;;;;;;;2.60;0.40;;;26.60;57.40;;;;;;4868783;29;20155;-83
2023/08/10 12:00:54;;;;;;;1.27;0.55;;;26.70;57.60;;;;;;4891225;29;20060;-81
2023/08/10 12:03:21;;;;;;;1.50;0.60;;;27.20;56.30;;;;;;4863002;29;20056;-83
2023/08/10 12:06:06;;;;;;;1.48;0.60;;;27.10;56.00;;;;;;4891737;29;20036;-85
2023/08/10 12:08:38;;;;;;;2.33;0.90;;;27.10;56.00;;;;;;4860913;29;20052;-85
2023/08/10 12:11:12;;;;;;;1.65;0.70;;;27.30;55.90;;;;;;4859304;29;20052;-84
2023/08/10 12:13:47;;;;;;;1.10;0.50;;;27.30;55.20;;;;;;4889658;29;20432;-86
2023/08/10 12:16:18;;;;;;;;;;;27.50;55.30;;;;;;4847580;29;20060;-85
2023/08/10 12:19:28;;;;;;;1.95;0.82;;;27.50;54.70;;;;;;4884157;29;20218;-86
2023/08/10 12:22:05;;;;;;;1.52;0.43;;;27.50;54.70;;;;;;4901458;29;20076;-84
2023/08/10 12:24:32;;;;;;;1.15;0.60;;;27.70;54.60;;;;;;4891946;29;20513;-88
2023/08/10 12:27:32;;;;;;;1.80;0.60;;;28.00;53.90;;;;;;4834605;29;20060;-87
2023/08/10 12:29:59;;;;;;;1.85;0.40;;;28.30;54.30;;;;;;4862559;29;20477;-84
2023/08/10 12:32:26;;;;;;;2.20;0.65;;;28.10;54.70;;;;;;4863173;29;20143;-86
2023/08/10 12:34:53;;;;;;;1.63;0.65;;;27.80;54.60;;;;;;4856695;29;20075;-84
2023/08/10 12:37:24;;;;;;;1.65;0.80;;;27.70;54.40;;;;;;4848401;29;20041;-86
2023/08/10 12:39:53;;;;;;;1.40;0.50;;;27.50;54.70;;;;;;4854269;29;20055;-85
2023/08/10 12:42:24;;;;;;;1.13;0.55;;;28.00;55.00;;;;;;4894571;29;20159;-85
2023/08/10 12:44:59;;;;;;;;;;;28.70;54.40;;;;;;4879023;29;20048;-89
2023/08/10 12:47:26;;;;;;;1.92;0.50;;;29.10;53.90;;;;;;4861934;29;20010;-85
2023/08/10 12:49:54;;;;;;;1.08;0.43;;;29.40;53.30;;;;;;4880287;29;20053;-82
2023/08/10 12:53:00;;;;;;;1.02;0.57;;;29.50;52.60;;;;;;4894834;29;20171;-82
2023/08/10 12:55:27;;;;;;;1.95;0.55;;;29.60;51.70;;;;;;4893625;29;20048;-90
2023/08/10 12:57:54;;;;;;;1.73;0.60;;;29.40;51.90;;;;;;4894026;29;20041;-88
2023/08/10 13:00:54;;;;;;;1.20;0.47;;;29.60;52.00;;;;;;4877386;29;20143;-86
2023/08/10 13:03:21;;;;;;;0.85;0.38;;;30.10;51.90;;;;;;4879171;29;20050;-82
2023/08/10 13:05:48;;;;;;;1.83;0.40;;;30.50;51.80;;;;;;4880135;29;20066;-82
2023/08/10 13:08:15;;;;;;;0.57;0.30;;;30.70;51.00;;;;;;4883927;29;20048;-89
2023/08/10 13:10:43;;;;;;;2.13;0.40;;;30.10;51.60;;;;;;4854904;29;20049;-91
2023/08/10 13:13:10;;;;;;;0.75;0.43;;;29.40;52.30;;;;;;4880488;29;20560;-82
2023/08/10 13:15:37;;;;;;;1.00;0.60;;;28.80;53.10;;;;;;4865247;29;20048;-83
2023/08/10 13:18:05;;;;;;;1.30;0.50;;;28.70;52.20;;;;;;4876306;29;20409;-81
2023/08/10 13:20:34;;;;;;;1.15;0.40;;;28.70;52.50;;;;;;4884436;29;20066;-89
2023/08/10 13:23:01;;;;;;;0.88;0.35;;;28.90;52.40;;;;;;4880385;29;20044;-88
2023/08/10 13:25:31;;;;;;;0.75;0.32;;;28.70;51.90;;;;;;4879728;29;20052;-88
2023/08/10 13:28:03;;;;;;;2.05;0.50;;;28.90;52.00;;;;;;4857900;29;20536;-82